createdAt,value
2018-04-15T00:06:00.553Z,9.90
2018-04-15T00:12:04.962Z,9.90
2018-04-15T00:18:09.640Z,10.00
2018-04-15T00:24:14.477Z,10.10
2018-04-15T00:30:19.055Z,10.10
2018-04-15T00:36:23.543Z,10.00
2018-04-15T00:42:28.051Z,10.10
2018-04-15T00:48:32.438Z,10.20
2018-04-15T00:54:36.804Z,10.20
2018-04-15T01:00:41.768Z,10.20
2018-04-15T01:06:46.506Z,10.20
2018-04-15T01:12:50.988Z,10.10
2018-04-15T01:18:56.130Z,10.00
2018-04-15T01:25:00.557Z,10.00
2018-04-15T01:31:05.687Z,9.90
2018-04-15T01:37:10.268Z,9.90
2018-04-15T01:43:15.148Z,10.00
2018-04-15T01:49:19.631Z,10.00
2018-04-15T01:55:24.092Z,10.00
2018-04-15T02:01:28.678Z,10.00
2018-04-15T02:07:33.042Z,10.00
2018-04-15T02:13:37.407Z,10.10
2018-04-15T02:19:42.596Z,10.10
2018-04-15T02:25:47.740Z,10.00
2018-04-15T02:31:52.120Z,9.90
2018-04-15T02:37:56.563Z,9.90
2018-04-15T02:44:01.063Z,9.90
2018-04-15T02:50:05.435Z,9.90
2018-04-15T02:56:10.062Z,10.00
2018-04-15T03:02:14.621Z,10.00
2018-04-15T03:08:19.313Z,9.90
2018-04-15T03:14:24.431Z,9.90
2018-04-15T03:20:29.551Z,9.80
2018-04-15T03:26:33.908Z,9.80
2018-04-15T03:32:38.286Z,9.80
2018-04-15T03:38:43.705Z,9.60
2018-04-15T03:44:48.069Z,9.60
2018-04-15T03:50:52.461Z,9.50
2018-04-15T03:56:56.881Z,9.50
2018-04-15T04:03:01.240Z,9.50
2018-04-15T04:09:05.619Z,9.50
2018-04-15T04:15:10.342Z,9.70
2018-04-15T04:21:32.946Z,9.80
2018-04-15T04:27:37.356Z,9.70
2018-04-15T04:33:42.164Z,9.70
2018-04-15T04:39:46.594Z,9.80
2018-04-15T04:45:51.026Z,9.90
2018-04-15T04:51:55.440Z,9.90
2018-04-15T04:57:59.931Z,10.00
2018-04-15T05:04:04.296Z,10.10
2018-04-15T05:10:08.699Z,10.10
2018-04-15T05:16:13.663Z,10.10
2018-04-15T05:22:18.052Z,10.20
2018-04-15T05:28:22.403Z,10.20
2018-04-15T05:34:26.769Z,10.30
2018-04-15T05:40:31.143Z,10.40
2018-04-15T05:46:35.547Z,10.40
2018-04-15T05:52:39.941Z,10.50
2018-04-15T05:58:44.548Z,10.50
2018-04-15T06:04:49.674Z,10.50
2018-04-15T06:10:54.025Z,10.50
2018-04-15T06:16:59.165Z,10.60
2018-04-15T06:23:03.541Z,10.50
2018-04-15T06:29:07.927Z,10.70
2018-04-15T06:35:12.741Z,10.70
2018-04-15T06:41:17.249Z,10.90
2018-04-15T06:47:21.612Z,10.90
2018-04-15T06:53:26.809Z,11.20
2018-04-15T06:59:31.940Z,11.40
2018-04-15T07:05:36.335Z,11.40
2018-04-15T07:11:40.709Z,11.70
2018-04-15T07:17:45.348Z,11.80
2018-04-15T07:23:49.711Z,11.90
2018-04-15T07:29:54.093Z,12.00
2018-04-15T07:35:58.463Z,12.10
2018-04-15T07:42:02.837Z,12.20
2018-04-15T07:48:07.227Z,12.30
2018-04-15T07:54:11.690Z,12.40
2018-04-15T08:00:16.066Z,12.60
2018-04-15T08:06:20.487Z,12.80
2018-04-15T08:12:24.893Z,13.00
2018-04-15T08:18:29.262Z,13.30
2018-04-15T08:24:33.632Z,13.50
2018-04-15T08:30:38.094Z,13.60
2018-04-15T08:36:42.699Z,13.70
2018-04-15T08:42:47.078Z,13.80
2018-04-15T08:48:52.238Z,13.90
2018-04-15T08:54:56.597Z,13.90
2018-04-15T09:01:01.009Z,14.10
2018-04-15T09:07:05.377Z,14.20
2018-04-15T09:13:10.325Z,14.40
2018-04-15T09:19:15.559Z,14.80
2018-04-15T09:25:20.079Z,14.80
2018-04-15T09:31:24.491Z,15.40
2018-04-15T09:37:28.959Z,15.70
2018-04-15T09:43:33.327Z,15.50
2018-04-15T09:49:37.748Z,15.50
2018-04-15T09:55:42.793Z,15.20
2018-04-15T10:01:47.264Z,15.30
2018-04-15T10:07:51.720Z,15.30
2018-04-15T10:13:56.111Z,15.60
2018-04-15T10:20:00.602Z,16.00
2018-04-15T10:26:04.980Z,16.90
2018-04-15T10:32:09.374Z,17.00
2018-04-15T10:38:13.806Z,17.00
2018-04-15T10:44:18.190Z,17.40
2018-04-15T10:50:22.559Z,18.70
2018-04-15T10:56:26.959Z,20.50
2018-04-15T11:02:31.419Z,20.40
2018-04-15T11:08:35.801Z,21.10
2018-04-15T11:14:41.019Z,21.10
2018-04-15T11:20:46.254Z,23.50
2018-04-15T11:26:51.488Z,24.50
2018-04-15T11:32:55.837Z,24.40
2018-04-15T11:39:00.238Z,25.70
2018-04-15T11:45:04.611Z,25.30
2018-04-15T11:51:08.986Z,25.20
2018-04-15T11:57:13.762Z,25.90
2018-04-15T12:03:18.179Z,25.00
2018-04-15T12:09:22.574Z,24.00
2018-04-15T12:15:27.705Z,25.70
2018-04-15T12:21:32.062Z,25.70
2018-04-15T12:27:36.476Z,25.30
2018-04-15T12:33:41.169Z,25.40
2018-04-15T12:39:45.630Z,25.70
2018-04-15T12:45:50.179Z,27.30
2018-04-15T12:51:54.609Z,28.60
2018-04-15T12:57:59.031Z,29.40
2018-04-15T13:04:03.424Z,28.70
2018-04-15T13:10:07.808Z,29.10
2018-04-15T13:16:12.251Z,29.00
2018-04-15T13:22:17.501Z,29.30
2018-04-15T13:28:21.878Z,29.20
2018-04-15T13:34:26.249Z,30.80
2018-04-15T13:40:30.633Z,31.70
2018-04-15T13:46:35.000Z,31.50
2018-04-15T13:52:39.380Z,30.20
2018-04-15T13:58:43.768Z,30.50
2018-04-15T14:04:48.136Z,28.60
2018-04-15T14:10:52.527Z,29.20
2018-04-15T14:16:56.887Z,29.80
2018-04-15T14:23:01.368Z,30.60
2018-04-15T14:29:05.725Z,31.70
2018-04-15T14:35:10.128Z,28.90
2018-04-15T14:41:14.630Z,27.90
2018-04-15T14:47:19.802Z,27.00
2018-04-15T14:53:24.168Z,27.00
2018-04-15T14:59:29.388Z,25.50
2018-04-15T15:05:34.540Z,26.60
2018-04-15T15:11:38.934Z,26.50
2018-04-15T15:17:43.345Z,26.70
2018-04-15T15:23:47.747Z,26.60
2018-04-15T15:29:52.187Z,26.80
2018-04-15T15:35:57.365Z,26.60
2018-04-15T15:42:02.572Z,28.10
2018-04-15T15:48:06.935Z,28.00
2018-04-15T15:54:12.136Z,27.50
2018-04-15T16:00:16.511Z,27.40
2018-04-15T16:06:21.637Z,29.70
2018-04-15T16:12:26.003Z,29.70
2018-04-15T16:18:30.451Z,29.90
2018-04-15T16:24:35.653Z,27.60
2018-04-15T16:30:41.769Z,25.10
2018-04-15T16:36:46.891Z,23.80
2018-04-15T16:42:51.269Z,23.80
2018-04-15T16:48:55.647Z,22.90
2018-04-15T16:55:00.096Z,22.60
2018-04-15T17:01:04.469Z,22.20
2018-04-15T17:07:08.843Z,22.00
2018-04-15T17:13:13.375Z,21.80
2018-04-15T17:19:17.936Z,22.90
2018-04-15T17:25:22.360Z,22.70
2018-04-15T17:31:27.567Z,21.40
2018-04-15T17:37:31.928Z,21.30
2018-04-15T17:43:37.064Z,20.30
2018-04-15T17:49:42.397Z,20.20
2018-04-15T17:55:46.801Z,20.00
2018-04-15T18:01:51.182Z,19.60
2018-04-15T18:07:55.558Z,19.10
2018-04-15T18:14:00.785Z,18.00
2018-04-15T18:20:05.160Z,18.00
2018-04-15T18:26:09.670Z,17.60
2018-04-15T18:32:14.136Z,17.30
2018-04-15T18:38:18.579Z,17.00
2018-04-15T18:44:22.955Z,16.70
2018-04-15T18:50:27.354Z,16.40
2018-04-15T18:56:31.733Z,16.40
2018-04-15T19:02:36.212Z,16.30
2018-04-15T19:08:42.426Z,16.10
2018-04-15T19:14:47.032Z,16.00
2018-04-15T19:20:51.400Z,15.90
2018-04-15T19:26:55.798Z,15.90
2018-04-15T19:33:00.973Z,15.80
2018-04-15T19:39:06.177Z,15.80
2018-04-15T19:45:12.070Z,15.60
2018-04-15T19:51:16.683Z,15.60
2018-04-15T19:57:21.117Z,15.60
2018-04-15T20:03:25.523Z,15.50
2018-04-15T20:09:30.710Z,15.50
2018-04-15T20:15:35.907Z,15.50
2018-04-15T20:21:42.067Z,15.40
2018-04-15T20:27:46.629Z,15.40
2018-04-15T20:33:51.003Z,15.40
2018-04-15T20:39:55.393Z,15.30
2018-04-15T20:45:59.832Z,15.30
2018-04-15T20:52:04.987Z,15.10
2018-04-15T20:58:09.395Z,15.10
2018-04-15T21:04:13.798Z,15.00
2018-04-15T21:10:18.209Z,15.00
2018-04-15T21:16:22.703Z,14.90
2018-04-15T21:22:27.091Z,15.00
2018-04-15T21:28:31.476Z,14.80
2018-04-15T21:34:36.694Z,14.70
2018-04-15T21:40:41.415Z,14.70
2018-04-15T21:46:45.922Z,14.70
2018-04-15T21:52:51.103Z,14.70
2018-04-15T21:58:55.642Z,14.70
2018-04-15T22:05:00.042Z,14.80
2018-04-15T22:11:04.418Z,14.80
2018-04-15T22:17:08.894Z,14.70
2018-04-15T22:23:13.429Z,14.70
2018-04-15T22:29:17.803Z,14.60
2018-04-15T22:35:22.166Z,14.50
2018-04-15T22:41:27.314Z,14.30
2018-04-15T22:47:31.696Z,14.30
2018-04-15T22:53:36.079Z,14.20
2018-04-15T22:59:40.718Z,14.20
2018-04-15T23:05:45.092Z,14.20
2018-04-15T23:11:49.577Z,14.20
2018-04-15T23:17:53.945Z,14.20
2018-04-15T23:23:58.346Z,14.20
2018-04-15T23:30:02.720Z,14.20
2018-04-15T23:36:07.101Z,14.20
2018-04-15T23:42:11.460Z,14.20
2018-04-15T23:48:15.918Z,14.10
2018-04-15T23:54:20.295Z,14.10
